Time;durP1;ratioP1;P1;durP2;ratioP2;P2;SDS_P1;SDS_P2;PMS_P1;PMS_P2;Temp;Humidity;BMP_temperature;BMP_pressure;BME280_temperature;BME280_humidity;BME280_pressure;Samples;Min_cycle;Max_cycle;Signal;HPM_P1;HPM_P2
2021/12/08 00:01:13;;;;;;;2.27;1.40;;;;;;;-145.69;100.00;71722.78;5074905;28;20276;-78
2021/12/08 00:03:40;;;;;;;0.80;0.80;;;;;;;-145.69;100.00;71696.91;5074692;28;20199;-78
2021/12/08 00:06:07;;;;;;;0.70;0.60;;;;;;;-145.69;100.00;71647.16;5074891;28;20195;-78
2021/12/08 00:08:34;;;;;;;3.70;0.90;;;;;;;-145.69;98.65;71621.28;5074896;28;20202;-79
2021/12/08 00:13:52;;;;;;;1.57;0.80;;;;;;;-145.69;99.44;71597.41;5074676;28;20676;-78
2021/12/08 00:16:18;;;;;;;1.50;0.83;;;;;;;-145.69;100.00;71581.50;5073854;28;20289;-78
2021/12/08 00:18:47;;;;;;;1.17;0.80;;;;;;;-145.69;100.00;71593.44;5074299;28;20577;-78
2021/12/08 00:21:15;;;;;;;0.80;0.80;;;;;;;-145.69;100.00;71597.41;5074318;28;20276;-78
2021/12/08 00:23:42;;;;;;;2.10;0.97;;;;;;;-145.69;100.00;71597.41;5074480;28;20248;-77
2021/12/08 00:26:09;;;;;;;2.07;0.90;;;;;;;-145.69;100.00;71589.44;5074466;28;20199;-77
2021/12/08 00:28:36;;;;;;;3.40;0.80;;;;;;;-145.69;100.00;71573.53;5074395;28;20260;-78
2021/12/08 00:31:06;;;;;;;2.53;1.00;;;;;;;-145.69;100.00;71577.50;5073872;28;20205;-78
2021/12/08 00:33:34;;;;;;;1.27;0.93;;;;;;;-145.69;100.00;71573.53;5073730;28;20198;-78
2021/12/08 00:36:02;;;;;;;1.03;0.70;;;;;;;-145.69;100.00;71551.63;5074509;28;20203;-77
2021/12/08 00:38:29;;;;;;;6.43;1.10;;;;;;;-145.69;100.00;71555.63;5074054;28;20207;-78
2021/12/08 00:40:58;;;;;;;0.80;0.80;;;;;;;-145.69;100.00;71543.69;5074122;28;20227;-78
2021/12/08 00:43:25;;;;;;;3.40;0.80;;;;;;;-145.69;100.00;71525.78;5073912;28;20199;-78
2021/12/08 00:45:52;;;;;;;1.00;0.90;;;;;;;-145.69;100.00;71511.84;5073727;28;20203;-79
2021/12/08 00:48:21;;;;;;;2.30;1.20;;;;;;;-145.69;100.00;71472.03;5073908;28;20232;-78
2021/12/08 00:50:48;;;;;;;0.90;0.80;;;;;;;-145.69;100.00;71444.19;5073820;28;20260;-78
2021/12/08 00:53:15;;;;;;;1.10;0.80;;;;;;;-145.69;100.00;71422.28;5073553;28;20235;-79
2021/12/08 00:55:42;;;;;;;1.50;1.00;;;;;;;-145.69;100.00;71398.41;5073786;28;20649;-78
2021/12/08 00:58:09;;;;;;;1.13;1.03;;;;;;;-145.69;100.00;71390.47;5073649;28;20195;-77
2021/12/08 01:00:38;;;;;;;0.70;0.70;;;;;;;-145.69;100.00;71382.50;5073336;28;20227;-77
2021/12/08 01:03:06;;;;;;;0.70;0.70;;;;;;;-145.69;100.00;71362.59;5065839;28;20203;-77
2021/12/08 01:05:39;;;;;;;1.43;1.03;;;;;;;-145.69;100.00;71368.56;5053732;28;20214;-77
2021/12/08 01:08:06;;;;;;;1.13;0.90;;;;;;;-145.69;100.00;71364.59;5053992;28;20210;-77
2021/12/08 01:10:33;;;;;;;2.70;1.20;;;;;;;-145.69;100.00;71352.66;5053468;28;20268;-76
2021/12/08 01:13:00;;;;;;;3.27;1.17;;;;;;;-145.69;100.00;71344.69;5072626;28;20655;-76
2021/12/08 01:15:28;;;;;;;2.00;1.10;;;;;;;-145.69;100.00;71366.56;5073502;28;20203;-76
2021/12/08 01:17:55;;;;;;;2.20;1.60;;;;;;;-145.69;100.00;71356.63;5060671;28;20610;-76
2021/12/08 01:20:23;;;;;;;2.10;1.23;;;;;;;-145.69;100.00;71360.59;5053153;28;20698;-76
2021/12/08 01:22:50;;;;;;;1.70;1.10;;;;;;;-145.69;100.00;71348.66;5053353;28;20252;-76
2021/12/08 01:25:17;;;;;;;2.07;1.20;;;;;;;-145.69;100.00;71366.56;5053283;28;20195;-76
2021/12/08 01:27:44;;;;;;;2.57;1.60;;;;;;;-145.69;100.00;71354.63;5056479;28;20248;-77
2021/12/08 01:30:12;;;;;;;1.70;1.20;;;;;;;-145.69;100.00;71344.69;5073408;28;20207;-76
2021/12/08 01:32:39;;;;;;;3.20;1.50;;;;;;;-145.69;100.00;71342.69;5073082;28;20248;-76
2021/12/08 01:35:07;;;;;;;2.03;1.10;;;;;;;-145.69;100.00;71326.78;5073228;28;20205;-76
2021/12/08 01:37:34;;;;;;;1.30;1.10;;;;;;;-145.69;100.00;71326.78;5072952;28;20199;-76
2021/12/08 01:40:04;;;;;;;2.13;1.10;;;;;;;-145.69;100.00;71338.72;5073396;28;20229;-76
2021/12/08 01:42:35;;;;;;;1.77;1.30;;;;;;;-145.69;100.00;71342.69;5072938;28;20199;-76
2021/12/08 01:47:48;;;;;;;1.30;1.00;;;;;;;-145.69;100.00;71322.81;5073030;28;20198;-76
2021/12/08 01:50:15;;;;;;;1.43;0.90;;;;;;;-145.69;100.00;71320.81;5072845;28;20209;-76
2021/12/08 01:52:41;;;;;;;1.43;1.20;;;;;;;-145.69;100.00;71308.88;5072741;28;20693;-76
2021/12/08 01:55:10;;;;;;;1.30;1.00;;;;;;;-145.69;100.00;71304.91;5073004;28;20199;-76
2021/12/08 01:57:37;;;;;;;1.67;1.20;;;;;;;-145.69;100.00;71318.81;5072385;28;20195;-76
2021/12/08 02:00:09;;;;;;;1.40;1.13;;;;;;;-145.69;100.00;71300.91;5072967;28;20280;-76
2021/12/08 02:02:36;;;;;;;3.37;1.03;;;;;;;-145.69;100.00;71310.84;5072988;28;20214;-76
2021/12/08 02:05:03;;;;;;;4.30;1.10;;;;;;;-145.69;100.00;71298.94;5072854;28;20710;-76
2021/12/08 02:07:30;;;;;;;1.80;1.00;;;;;;;-145.69;100.00;71296.94;5072981;28;20207;-75
2021/12/08 02:09:57;;;;;;;2.37;1.17;;;;;;;-145.69;100.00;71316.84;5072618;28;20191;-76
2021/12/08 02:12:26;;;;;;;1.60;1.10;;;;;;;-145.69;100.00;71304.91;5072955;28;20260;-76
2021/12/08 02:14:52;;;;;;;1.47;1.20;;;;;;;-145.69;100.00;71316.84;5072930;28;20206;-76
2021/12/08 02:17:19;;;;;;;1.48;0.95;;;;;;;-145.69;100.00;71314.84;5071747;28;20442;-76
2021/12/08 02:19:47;;;;;;;1.27;1.17;;;;;;;-145.69;100.00;71300.91;5073095;28;20203;-76
2021/12/08 02:22:15;;;;;;;2.37;1.00;;;;;;;-145.69;100.00;71314.84;5072331;28;20268;-76
2021/12/08 02:24:41;;;;;;;1.17;1.00;;;;;;;-145.69;100.00;71332.75;5072915;28;20229;-76
2021/12/08 02:27:08;;;;;;;1.20;1.03;;;;;;;-145.69;100.00;71330.75;5072674;28;20257;-76
2021/12/08 02:29:40;;;;;;;1.17;1.07;;;;;;;-145.69;100.00;71334.75;5072794;28;20206;-76
2021/12/08 02:32:13;;;;;;;1.67;1.03;;;;;;;-145.69;100.00;71342.69;5072761;28;20657;-76
2021/12/08 02:48:21;;;;;;;1.57;1.10;;;;;;;-145.69;100.00;71342.69;5072274;28;20557;-76
2021/12/08 02:50:48;;;;;;;1.40;1.30;;;;;;;-145.69;100.00;71344.69;5072453;28;20261;-76
2021/12/08 02:53:16;;;;;;;0.97;0.90;;;;;;;-145.69;100.00;71346.69;5072567;28;20616;-76
2021/12/08 02:55:45;;;;;;;5.57;1.33;;;;;;;-145.69;100.00;71342.69;5072466;28;20202;-77
2021/12/08 02:58:13;;;;;;;1.70;1.20;;;;;;;-145.69;100.00;71356.63;5075529;28;20206;-75
2021/12/08 03:00:43;;;;;;;2.03;1.37;;;;;;;-145.69;100.00;71362.59;5076172;28;20225;-76
2021/12/08 03:03:10;;;;;;;1.10;1.00;;;;;;;-145.69;100.00;71358.63;5075740;28;20578;-76
2021/12/08 03:05:36;;;;;;;1.37;1.10;;;;;;;-145.69;100.00;71362.59;5075859;28;20657;-76
2021/12/08 03:08:06;;;;;;;1.40;1.20;;;;;;;-145.69;100.00;71368.56;5075995;28;20264;-76
2021/12/08 03:10:38;;;;;;;3.20;1.37;;;;;;;-145.69;100.00;71374.53;5075616;28;20203;-76
2021/12/08 03:13:06;;;;;;;1.90;1.30;;;;;;;-145.69;100.00;71380.50;5075521;28;20195;-76
2021/12/08 03:15:33;;;;;;;1.43;1.30;;;;;;;-145.69;100.00;71374.53;5075845;28;20603;-75
2021/12/08 03:17:59;;;;;;;1.30;1.20;;;;;;;-145.69;100.00;71378.50;5075729;28;20191;-76
2021/12/08 03:20:39;;;;;;;2.60;1.30;;;;;;;-145.69;100.00;71382.50;5075838;28;20227;-76
2021/12/08 03:23:06;;;;;;;2.43;1.47;;;;;;;-145.69;100.00;71378.50;5075676;28;20289;-76
2021/12/08 03:25:38;;;;;;;2.20;1.20;;;;;;;-145.69;100.00;71382.50;5075771;28;20707;-76
2021/12/08 03:28:12;;;;;;;1.50;1.23;;;;;;;-145.69;100.00;71386.47;5059678;28;20291;-76
2021/12/08 03:30:51;;;;;;;2.07;1.37;;;;;;;-145.69;100.00;71402.41;5063896;28;20256;-75
2021/12/08 03:33:17;;;;;;;1.47;1.30;;;;;;;-145.69;100.00;71422.28;5075415;28;20612;-76
2021/12/08 03:35:44;;;;;;;1.60;1.27;;;;;;;-145.69;100.00;71418.31;5075396;28;20562;-75
2021/12/08 03:38:10;;;;;;;1.30;1.20;;;;;;;-145.69;100.00;71432.25;5075200;28;20202;-75
2021/12/08 03:40:38;;;;;;;1.57;1.40;;;;;;;-145.69;100.00;71414.34;5075040;28;20222;-76
2021/12/08 03:43:05;;;;;;;1.53;1.30;;;;;;;-145.69;100.00;71408.38;5075500;28;20206;-75
2021/12/08 03:45:34;;;;;;;1.47;1.37;;;;;;;-145.69;100.00;71406.38;5075123;28;20198;-76
2021/12/08 03:48:05;;;;;;;1.33;1.10;;;;;;;-145.69;100.00;71398.41;5075226;28;20290;-76
2021/12/08 03:50:34;;;;;;;1.60;0.90;;;;;;;-145.69;100.00;71406.38;5075227;28;20199;-76
2021/12/08 03:53:00;;;;;;;1.83;1.20;;;;;;;-145.69;100.00;71406.38;5074743;28;20226;-76
2021/12/08 03:55:27;;;;;;;1.03;0.93;;;;;;;-145.69;100.00;71420.31;5075269;28;20616;-76
2021/12/08 03:57:55;;;;;;;1.67;0.93;;;;;;;-145.69;100.00;71424.28;5075152;28;20195;-76
2021/12/08 04:00:24;;;;;;;1.97;1.37;;;;;;;-145.69;100.00;71424.28;5074570;28;20194;-76
2021/12/08 04:02:51;;;;;;;1.20;0.97;;;;;;;-145.69;100.00;71422.28;5074549;28;20202;-75
2021/12/08 04:05:20;;;;;;;1.27;0.80;;;;;;;-145.69;100.00;71430.25;5074669;28;20199;-76
2021/12/08 04:07:47;;;;;;;1.33;1.03;;;;;;;-145.69;100.00;71428.25;5074381;28;20202;-76
2021/12/08 04:10:18;;;;;;;2.97;1.60;;;;;;;-145.69;100.00;71434.22;5074931;28;20195;-76
2021/12/08 04:12:47;;;;;;;1.63;1.00;;;;;;;-145.69;100.00;71424.28;5074821;28;20672;-76
2021/12/08 04:15:16;;;;;;;1.40;1.10;;;;;;;-145.69;100.00;71424.28;5074871;28;20228;-76
2021/12/08 04:17:46;;;;;;;0.70;0.70;;;;;;;-145.69;100.00;71426.28;5074819;28;20206;-76
2021/12/08 04:20:17;;;;;;;1.37;1.03;;;;;;;-145.69;100.00;71438.22;5074440;28;20653;-76
2021/12/08 04:22:46;;;;;;;4.17;0.90;;;;;;;-145.69;100.00;71428.25;5074660;28;20233;-76
2021/12/08 04:25:17;;;;;;;1.27;0.77;;;;;;;-145.69;100.00;71434.22;5074358;28;20681;-76
2021/12/08 04:27:44;;;;;;;0.80;0.80;;;;;;;-145.69;100.00;71438.22;5073975;28;20558;-75
2021/12/08 04:30:15;;;;;;;1.63;0.97;;;;;;;-145.69;100.00;71430.25;5074294;28;20619;-75
2021/12/08 04:32:43;;;;;;;1.33;0.87;;;;;;;-145.69;100.00;71446.16;5074201;28;20202;-76
2021/12/08 04:35:15;;;;;;;0.70;0.70;;;;;;;-145.69;100.00;71448.16;5074252;28;20282;-76
2021/12/08 04:37:45;;;;;;;1.07;0.93;;;;;;;-145.69;100.00;71460.09;5074264;28;20272;-76
2021/12/08 04:40:23;;;;;;;0.70;0.70;;;;;;;-145.69;100.00;71470.06;5074302;28;20206;-76
2021/12/08 04:43:00;;;;;;;0.90;0.90;;;;;;;-145.69;100.00;71474.03;5073803;28;20308;-76
2021/12/08 04:45:38;;;;;;;0.70;0.70;;;;;;;-145.69;100.00;71442.19;5074250;28;20199;-76
2021/12/08 04:48:20;;;;;;;1.10;1.00;;;;;;;-145.69;100.00;71456.13;5073806;28;20202;-76
2021/12/08 04:51:14;;;;;;;2.00;0.90;;;;;;;-145.69;100.00;71460.09;5073663;28;20237;-76
2021/12/08 04:54:00;;;;;;;0.83;0.83;;;;;;;-145.69;100.00;71454.13;5073755;28;20226;-76
2021/12/08 05:02:29;;;;;;;1.23;0.90;;;;;;;-145.69;100.00;71489.94;5011912;28;20235;-76
2021/12/08 05:05:12;;;;;;;1.73;0.97;;;;;;;-145.69;100.00;71497.91;5054177;28;20608;-75
2021/12/08 05:07:49;;;;;;;1.90;0.80;;;;;;;-145.69;100.00;71493.94;5073598;28;20206;-76
2021/12/08 05:10:21;;;;;;;2.50;0.87;;;;;;;-145.69;100.00;71497.91;5073090;28;20545;-76
2021/12/08 05:12:50;;;;;;;1.20;1.00;;;;;;;-145.69;100.00;71507.84;5073482;28;20697;-75
2021/12/08 05:15:20;;;;;;;0.73;0.73;;;;;;;-145.69;100.00;71501.88;5073520;28;20206;-76
2021/12/08 05:17:49;;;;;;;1.63;0.90;;;;;;;-145.69;100.00;71499.91;5073556;28;20210;-75
2021/12/08 05:20:21;;;;;;;1.20;0.80;;;;;;;-145.69;100.00;71501.88;5072831;28;20222;-76
2021/12/08 05:22:52;;;;;;;1.80;1.07;;;;;;;-145.69;100.00;71505.88;5073247;28;20237;-76
2021/12/08 05:25:23;;;;;;;1.00;0.60;;;;;;;-145.69;100.00;71509.84;5073142;28;20205;-76
2021/12/08 05:27:53;;;;;;;3.33;1.30;;;;;;;-145.69;100.00;71505.88;5073304;28;20260;-76
2021/12/08 05:30:24;;;;;;;3.33;1.07;;;;;;;-145.69;100.00;71501.88;5073145;28;20658;-76
2021/12/08 05:32:52;;;;;;;1.60;0.97;;;;;;;-145.69;100.00;71501.88;5057684;28;20655;-76
2021/12/08 05:35:22;;;;;;;3.97;1.20;;;;;;;-145.69;100.00;71499.91;5053090;28;20199;-76
2021/12/08 05:37:49;;;;;;;5.27;1.20;;;;;;;-145.69;100.00;71505.88;5060942;28;20248;-76
2021/12/08 05:40:21;;;;;;;1.23;1.10;;;;;;;-145.69;100.00;71515.81;5073209;28;20683;-76
2021/12/08 05:42:48;;;;;;;2.23;1.10;;;;;;;-145.69;100.00;71517.81;5072986;28;20230;-76
2021/12/08 05:45:17;;;;;;;1.10;1.00;;;;;;;-145.69;100.00;71517.81;5073093;28;20198;-75
2021/12/08 05:47:46;;;;;;;4.87;1.40;;;;;;;-145.69;100.00;71521.78;5072871;28;20715;-76
2021/12/08 05:50:16;;;;;;;3.83;1.50;;;;;;;-145.69;100.00;71525.78;5073185;28;20233;-75
2021/12/08 05:52:44;;;;;;;4.83;1.53;;;;;;;-145.69;100.00;71523.78;5072503;28;20234;-76
2021/12/08 05:55:10;;;;;;;7.27;1.67;;;;;;;-145.69;100.00;71517.81;5073048;28;20264;-76
2021/12/08 05:57:42;;;;;;;4.97;1.50;;;;;;;-145.69;100.00;71521.78;5072789;28;20549;-76
2021/12/08 06:00:14;;;;;;;4.30;1.73;;;;;;;-145.69;100.00;71525.78;5072763;28;20249;-76
2021/12/08 06:02:42;;;;;;;3.33;1.60;;;;;;;-145.69;100.00;71529.75;5072975;28;20230;-76
2021/12/08 06:05:10;;;;;;;5.70;2.33;;;;;;;-145.69;100.00;71529.75;5072664;28;20244;-75
2021/12/08 06:07:37;;;;;;;7.57;2.10;;;;;;;-145.69;100.00;71529.75;5072852;28;20696;-75
2021/12/08 06:10:10;;;;;;;5.27;1.60;;;;;;;-145.69;100.00;71533.72;5072850;28;20224;-75
2021/12/08 06:12:36;;;;;;;3.27;1.80;;;;;;;-145.69;100.00;71537.72;5072801;28;20198;-75
2021/12/08 06:15:04;;;;;;;3.70;1.90;;;;;;;-145.69;100.00;71533.72;5072807;28;20198;-76
2021/12/08 06:17:32;;;;;;;5.20;2.10;;;;;;;-145.69;100.00;71529.75;5072799;28;20202;-76
2021/12/08 06:19:59;;;;;;;4.30;2.13;;;;;;;-145.69;100.00;71531.75;5072592;28;20573;-75
2021/12/08 06:22:28;;;;;;;8.87;2.50;;;;;;;-145.69;100.00;71531.75;5072683;28;20632;-75
2021/12/08 06:24:54;;;;;;;2.27;1.70;;;;;;;-145.69;100.00;71525.78;5072660;28;20214;-75
2021/12/08 06:27:22;;;;;;;2.67;1.63;;;;;;;-145.69;100.00;71515.81;5072537;28;20204;-75
2021/12/08 06:29:49;;;;;;;2.50;1.80;;;;;;;-145.69;100.00;71511.84;5072583;28;20661;-75
2021/12/08 06:32:16;;;;;;;5.73;2.60;;;;;;;-145.69;100.00;71513.81;5075943;28;20202;-75
2021/12/08 06:34:46;;;;;;;6.30;2.10;;;;;;;-145.69;100.00;71513.81;5076481;28;20655;-75
2021/12/08 06:37:18;;;;;;;2.37;1.80;;;;;;;-145.69;100.00;71517.81;5076501;28;20202;-75
2021/12/08 06:39:49;;;;;;;3.83;2.23;;;;;;;-145.69;100.00;71529.75;5076335;28;20205;-75
2021/12/08 06:42:20;;;;;;;6.77;2.43;;;;;;;-145.69;100.00;71537.72;5076395;28;20260;-75
2021/12/08 06:44:52;;;;;;;2.60;1.43;;;;;;;-145.69;100.00;71529.75;5076139;28;20194;-75
2021/12/08 06:47:22;;;;;;;5.07;1.87;;;;;;;-145.69;100.00;71533.72;5076337;28;20589;-75
2021/12/08 06:49:51;;;;;;;3.50;1.90;;;;;;;-145.69;100.00;71529.75;5076276;28;20202;-75
2021/12/08 06:52:20;;;;;;;3.57;2.10;;;;;;;-145.69;100.00;71539.69;5075970;28;20260;-75
2021/12/08 06:54:51;;;;;;;2.37;1.60;;;;;;;-145.69;100.00;71537.72;5076656;28;20229;-75
2021/12/08 06:57:25;;;;;;;2.10;1.30;;;;;;;-145.69;100.00;71525.78;5076397;28;20199;-75
2021/12/08 06:59:58;;;;;;;2.80;1.90;;;;;;;-145.69;100.00;71529.75;5075783;28;20210;-75
2021/12/08 07:02:49;;;;;;;2.93;1.80;;;;;;;-145.69;100.00;71537.72;5075898;28;20223;-75
2021/12/08 07:05:30;;;;;;;5.37;2.00;;;;;;;-145.69;100.00;71531.75;5075871;28;20285;-76
2021/12/08 07:08:00;;;;;;;7.57;2.20;;;;;;;-145.69;100.00;71535.72;5075830;28;20199;-75
2021/12/08 07:10:30;;;;;;;3.33;2.27;;;;;;;-145.69;100.00;71537.72;5075913;28;20201;-76
2021/12/08 07:13:00;;;;;;;3.73;2.40;;;;;;;-145.69;100.00;71537.72;5075610;28;20198;-75
2021/12/08 07:15:32;;;;;;;2.90;1.83;;;;;;;-145.69;100.00;71537.72;5075889;28;20260;-75
2021/12/08 07:18:03;;;;;;;2.90;1.50;;;;;;;-145.69;100.00;71533.72;5075670;28;20198;-75
2021/12/08 07:20:42;;;;;;;2.90;1.73;;;;;;;-145.69;100.00;71535.72;5075831;28;20214;-75
2021/12/08 07:23:11;;;;;;;1.67;1.40;;;;;;;-145.69;100.00;71537.72;5075479;28;20628;-75
2021/12/08 07:25:38;;;;;;;1.67;1.37;;;;;;;-145.69;100.00;71541.69;5075409;28;20203;-75
2021/12/08 07:28:07;;;;;;;3.17;1.97;;;;;;;-145.69;100.00;71535.72;5075249;28;20202;-76
2021/12/08 07:30:38;;;;;;;2.67;1.77;;;;;;;-145.69;100.00;71525.78;5075546;28;20210;-75
2021/12/08 07:33:06;;;;;;;4.27;1.90;;;;;;;-145.69;100.00;71533.72;5075475;28;20225;-75
2021/12/08 07:35:38;;;;;;;2.80;2.00;;;;;;;-145.69;100.00;71531.75;5064179;28;20261;-75
2021/12/08 07:38:06;;;;;;;3.93;1.90;;;;;;;-145.69;100.00;71537.72;5055246;28;20593;-75
2021/12/08 07:40:43;;;;;;;6.60;2.50;;;;;;;-145.69;100.00;71541.69;5057895;28;20199;-76
2021/12/08 07:43:13;;;;;;;2.83;1.83;;;;;;;-145.69;100.00;71533.72;5074671;28;20279;-75
2021/12/08 07:45:45;;;;;;;3.57;1.90;;;;;;;-145.69;100.00;71531.75;5075243;28;20203;-75
2021/12/08 07:48:16;;;;;;;3.33;2.33;;;;;;;-145.69;100.00;71533.72;5075119;28;20198;-75
2021/12/08 07:50:47;;;;;;;3.43;1.90;;;;;;;-145.69;100.00;71517.81;5075047;28;20198;-75
2021/12/08 07:53:18;;;;;;;2.47;1.50;;;;;;;-145.69;100.00;71521.78;5074942;28;20231;-76
2021/12/08 07:55:48;;;;;;;3.10;1.80;;;;;;;-145.69;100.00;71515.81;5074475;28;20252;-75
2021/12/08 07:58:17;;;;;;;6.00;2.60;;;;;;;-145.69;100.00;71503.88;5074476;28;20245;-75
2021/12/08 08:00:48;;;;;;;6.63;2.40;;;;;;;-145.69;100.00;71503.88;5074699;28;20195;-75
2021/12/08 08:03:16;;;;;;;4.63;2.00;;;;;;;-145.69;100.00;71509.84;5074723;28;20252;-75
2021/12/08 08:05:44;;;;;;;3.30;2.30;;;;;;;-145.69;100.00;71519.81;5074922;28;20206;-75
2021/12/08 08:08:14;;;;;;;2.97;2.03;;;;;;;-145.69;100.00;71525.78;5074878;28;20222;-75
2021/12/08 08:10:47;;;;;;;2.00;1.60;;;;;;;-145.69;100.00;71511.84;5074702;28;20281;-75
2021/12/08 08:13:16;;;;;;;2.40;1.60;;;;;;;-145.69;100.00;71527.75;5074821;28;20210;-75
2021/12/08 08:15:48;;;;;;;1.60;1.40;;;;;;;-145.69;100.00;71511.84;5074613;28;20676;-75
2021/12/08 08:18:19;;;;;;;2.83;1.63;;;;;;;-145.69;100.00;71505.88;5074882;28;20248;-74
2021/12/08 08:20:50;;;;;;;1.90;1.33;;;;;;;-145.69;100.00;71499.91;5074710;28;20286;-76
2021/12/08 08:23:18;;;;;;;1.40;1.17;;;;;;;-145.69;100.00;71493.94;5074161;28;20218;-75
2021/12/08 08:25:46;;;;;;;2.07;1.37;;;;;;;-145.69;100.00;71501.88;5074473;28;20213;-75
2021/12/08 08:28:16;;;;;;;1.73;1.30;;;;;;;-145.69;100.00;71483.97;5074142;28;20202;-75
2021/12/08 08:30:47;;;;;;;1.87;1.17;;;;;;;-145.69;100.00;71476.03;5074149;28;20561;-75
2021/12/08 08:33:14;;;;;;;2.97;1.67;;;;;;;-145.69;100.00;71478.00;5074251;28;20649;-75
2021/12/08 08:35:43;;;;;;;1.53;1.10;;;;;;;-145.69;100.00;71495.91;5074329;28;20285;-75
2021/12/08 08:38:13;;;;;;;1.30;1.00;;;;;;;-145.69;100.00;71485.97;5073867;28;20240;-75
2021/12/08 08:40:46;;;;;;;2.13;1.33;;;;;;;-145.69;100.00;71474.03;5074104;28;20252;-75
2021/12/08 08:43:14;;;;;;;2.20;1.10;;;;;;;-145.69;100.00;71472.03;5073664;28;20224;-75
2021/12/08 08:45:52;;;;;;;2.07;1.30;;;;;;;-145.69;100.00;71482.00;5074186;28;20195;-75
2021/12/08 08:48:21;;;;;;;1.83;1.27;;;;;;;-145.69;100.00;71485.97;5073887;28;20202;-75
2021/12/08 08:50:51;;;;;;;2.90;1.50;;;;;;;-145.69;100.00;71489.94;5073269;28;20190;-75
2021/12/08 08:53:22;;;;;;;1.40;1.20;;;;;;;-145.69;100.00;71493.94;5073437;28;20231;-75
2021/12/08 08:55:51;;;;;;;1.90;0.90;;;;;;;-145.69;100.00;71482.00;5072931;28;20608;-75
2021/12/08 08:58:20;;;;;;;3.37;1.30;;;;;;;-145.69;100.00;71480.00;5073582;28;20726;-75
2021/12/08 09:00:51;;;;;;;2.47;1.50;;;;;;;-145.69;100.00;71485.97;5073739;28;20199;-74
2021/12/08 09:03:22;;;;;;;1.40;1.10;;;;;;;-145.69;100.00;71485.97;5073565;28;20620;-75
2021/12/08 09:05:52;;;;;;;2.33;1.40;;;;;;;-145.69;100.00;71480.00;5073330;28;20199;-75
2021/12/08 09:08:21;;;;;;;1.47;1.10;;;;;;;-145.69;100.00;71482.00;5073467;28;20600;-75
2021/12/08 09:10:53;;;;;;;1.93;1.40;;;;;;;-145.69;100.00;71487.97;5072899;28;20195;-74
2021/12/08 09:13:24;;;;;;;1.83;1.13;;;;;;;-145.69;100.00;71485.97;5073380;28;20252;-74
2021/12/08 09:15:55;;;;;;;1.80;1.30;;;;;;;-145.69;100.00;71480.00;5073359;28;20199;-73
2021/12/08 09:18:30;;;;;;;2.20;1.20;;;;;;;-145.69;100.00;71470.06;5073553;28;20206;-74
2021/12/08 09:21:11;;;;;;;1.87;1.10;;;;;;;-145.69;100.00;71450.16;5073207;28;20557;-73
2021/12/08 09:23:45;;;;;;;1.10;0.90;;;;;;;-145.69;100.00;71450.16;5072731;28;20237;-74
2021/12/08 09:26:15;;;;;;;2.30;1.20;;;;;;;-145.69;100.00;71454.13;5073112;28;20317;-73
2021/12/08 09:28:45;;;;;;;3.80;1.80;;;;;;;-145.69;100.00;71456.13;5073094;28;20207;-75
2021/12/08 09:31:19;;;;;;;4.60;1.27;;;;;;;-145.69;100.00;71466.06;5069914;28;20194;-74
2021/12/08 09:33:53;;;;;;;2.40;1.60;;;;;;;-145.69;100.00;71468.06;5073119;28;20198;-74
2021/12/08 09:36:23;;;;;;;2.07;1.43;;;;;;;-145.69;100.00;71466.06;5067772;28;20264;-75
2021/12/08 09:38:55;;;;;;;2.30;1.57;;;;;;;-145.69;100.00;71466.06;5054443;28;20265;-76
2021/12/08 09:41:27;;;;;;;4.80;2.10;;;;;;;-145.69;100.00;71462.09;5052959;28;20210;-74
2021/12/08 09:43:58;;;;;;;3.83;1.83;;;;;;;-145.69;100.00;71470.06;5056910;28;20226;-76
2021/12/08 09:46:32;;;;;;;4.20;2.03;;;;;;;-145.69;100.00;71460.09;5073171;28;20565;-75
2021/12/08 09:48:58;;;;;;;2.97;1.80;;;;;;;-145.69;100.00;71454.13;5070636;28;20272;-75
2021/12/08 09:51:27;;;;;;;5.40;2.33;;;;;;;-145.69;100.00;71444.19;5052835;28;20206;-74
2021/12/08 09:53:54;;;;;;;3.63;1.90;;;;;;;-145.69;100.00;71442.19;5052735;28;20243;-76
2021/12/08 09:56:21;;;;;;;3.83;2.40;;;;;;;-145.69;100.00;71440.19;5053787;28;20264;-76
2021/12/08 09:58:48;;;;;;;3.73;2.07;;;;;;;-145.69;100.00;71442.19;5052749;28;20253;-76
2021/12/08 10:01:19;;;;;;;3.33;2.03;;;;;;;-145.69;100.00;71430.25;5052595;28;20272;-74
2021/12/08 10:03:47;;;;;;;5.97;2.67;;;;;;;-145.69;100.00;71450.16;5062098;28;20684;-74
2021/12/08 10:06:14;;;;;;;3.80;2.50;;;;;;;-145.69;100.00;71446.16;5072335;28;20661;-74
2021/12/08 10:08:42;;;;;;;4.73;2.50;;;;;;;-145.69;100.00;71438.22;5072436;28;20676;-74
2021/12/08 10:11:09;;;;;;;9.53;2.90;;;;;;;-145.69;100.00;71442.19;5072515;28;20195;-74
2021/12/08 10:13:36;;;;;;;6.60;2.77;;;;;;;-145.69;100.00;71436.22;5072661;28;20203;-74
2021/12/08 10:16:02;;;;;;;6.33;3.50;;;;;;;-145.69;100.00;71444.19;5072611;28;20206;-74
2021/12/08 10:18:29;;;;;;;4.87;3.20;;;;;;;-145.69;100.00;71446.16;5072175;28;20612;-74
2021/12/08 10:20:57;;;;;;;7.93;3.90;;;;;;;-145.69;100.00;71448.16;5072496;28;20199;-74
2021/12/08 10:23:28;;;;;;;7.13;3.80;;;;;;;-145.69;100.00;71432.25;5072271;28;20560;-74
2021/12/08 10:25:57;;;;;;;7.80;4.03;;;;;;;-145.69;100.00;71424.28;5072662;28;20202;-74
2021/12/08 10:28:28;;;;;;;10.40;4.43;;;;;;;-145.69;100.00;71414.34;5072630;28;20198;-74
2021/12/08 10:30:57;;;;;;;6.63;3.77;;;;;;;-145.69;100.00;71406.38;5072074;28;20202;-74
2021/12/08 10:33:47;;;;;;;4.10;2.90;;;;;;;-145.69;100.00;71394.44;5072528;28;20203;-74
2021/12/08 10:36:34;;;;;;;6.50;3.33;;;;;;;-145.69;100.00;71390.47;5072465;28;20279;-74
2021/12/08 10:39:05;;;;;;;5.87;3.03;;;;;;;-145.69;100.00;71378.50;5071242;28;20277;-74
2021/12/08 10:41:51;;;;;;;4.70;3.17;;;;;;;-145.69;100.00;71366.56;5070854;28;20210;-74
2021/12/08 10:44:23;;;;;;;4.70;2.87;;;;;;;-145.69;100.00;71366.56;5071717;28;20229;-74
2021/12/08 10:46:54;;;;;;;3.87;2.67;;;;;;;-145.69;100.00;71358.63;5070619;28;20199;-75
2021/12/08 10:49:22;;;;;;;6.03;2.90;;;;;;;-145.69;100.00;71354.63;5072059;28;20230;-74
2021/12/08 10:54:37;;;;;;;6.17;2.90;;;;;;;-145.69;100.00;71366.56;5071835;28;20252;-73
2021/12/08 10:57:22;;;;;;;4.33;2.80;;;;;;;-145.69;100.00;71362.59;5072061;28;20198;-74
2021/12/08 10:59:57;;;;;;;5.03;3.13;;;;;;;-145.69;100.00;71356.63;5070710;28;20442;-74
2021/12/08 11:02:43;;;;;;;4.90;2.83;;;;;;;-145.69;100.00;71342.69;5071186;28;20538;-74
2021/12/08 11:05:29;;;;;;;3.90;2.60;;;;;;;-145.69;100.00;71342.69;5069493;28;20195;-75
2021/12/08 11:08:03;;;;;;;4.00;2.30;;;;;;;-145.69;100.00;71336.72;5071171;28;20198;-75
2021/12/08 11:10:30;;;;;;;5.13;2.77;;;;;;;-145.69;100.00;71338.72;5071539;28;20195;-74
2021/12/08 11:12:57;;;;;;;3.43;2.57;;;;;;;-145.69;100.00;71330.75;5071414;28;20207;-74
2021/12/08 11:15:25;;;;;;;5.63;3.07;;;;;;;-145.69;100.00;71320.81;5071608;28;20198;-74
2021/12/08 11:18:08;;;;;;;4.63;3.20;;;;;;;-145.69;100.00;71320.81;5073028;28;20198;-75
2021/12/08 11:20:42;;;;;;;5.37;3.00;;;;;;;-145.69;100.00;71298.94;5073249;28;20252;-76
2021/12/08 11:23:11;;;;;;;4.97;2.93;;;;;;;-145.69;100.00;71285.00;5074978;28;20223;-74
2021/12/08 11:25:40;;;;;;;5.73;2.63;;;;;;;-145.69;100.00;71283.00;5075412;28;20535;-74
2021/12/08 11:28:22;;;;;;;4.53;2.50;;;;;;;-145.69;100.00;71294.94;5074897;28;20672;-74
2021/12/08 11:30:50;;;;;;;3.73;2.07;;;;;;;-145.69;100.00;71300.91;5075406;28;20248;-74
2021/12/08 11:33:21;;;;;;;8.57;3.97;;;;;;;-145.69;100.00;71288.97;5075354;28;20202;-74
2021/12/08 11:35:47;;;;;;;4.50;2.67;;;;;;;-145.69;100.00;71277.03;5075462;28;20621;-74
2021/12/08 11:38:26;;;;;;;3.10;1.90;;;;;;;-145.69;100.00;71259.13;5075088;28;20210;-73
2021/12/08 11:40:52;;;;;;;2.60;1.90;;;;;;;-145.69;100.00;71239.22;5072455;28;20202;-73
2021/12/08 11:43:28;;;;;;;4.07;2.03;;;;;;;-145.69;100.00;71251.16;5063834;28;20224;-73
2021/12/08 11:45:54;;;;;;;3.60;2.27;;;;;;;-145.69;100.00;71249.19;5054855;28;20203;-73
2021/12/08 11:48:22;;;;;;;10.77;6.33;;;;;;;-145.69;100.00;71239.22;5055314;28;20203;-74
2021/12/08 11:50:49;;;;;;;7.40;4.67;;;;;;;-145.69;100.00;71245.19;5055113;28;20282;-73